Time;durP1;ratioP1;P1;durP2;ratioP2;P2;SDS_P1;SDS_P2;PMS_P1;PMS_P2;Temp;Humidity;BMP_temperature;BMP_pressure;BME280_temperature;BME280_humidity;BME280_pressure;Samples;Min_cycle;Max_cycle;Signal;HPM_P1;HPM_P2
2024/02/04 00:00:19;;;;;;;4.70;3.20;;;;;;;7.00;88.30;99672.60;129727;1270;107583;-80
2024/02/04 00:03:45;;;;;;;5.10;2.70;;;;;;;6.92;88.23;99668.46;129691;1279;110945;-80
2024/02/04 00:06:51;;;;;;;8.50;3.30;;;;;;;6.88;88.00;99669.50;129675;1264;106534;-83
2024/02/04 00:09:56;;;;;;;7.60;2.70;;;;;;;6.84;87.98;99666.54;129646;1264;109376;-82
2024/02/04 00:13:02;;;;;;;7.00;3.40;;;;;;;6.82;88.44;99657.27;129672;1264;107660;-81
2024/02/04 00:16:09;;;;;;;7.60;3.20;;;;;;;6.84;87.97;99654.89;129696;1264;108752;-80
2024/02/04 00:19:14;;;;;;;7.30;3.40;;;;;;;6.84;87.65;99652.55;129661;1270;107069;-80
2024/02/04 00:22:20;;;;;;;7.30;3.60;;;;;;;6.83;87.89;99650.38;129685;1270;107809;-80
2024/02/04 00:25:26;;;;;;;7.40;3.40;;;;;;;6.80;87.78;99645.69;129670;1270;108419;-80
2024/02/04 00:28:31;;;;;;;13.50;4.10;;;;;;;6.74;88.03;99640.39;129695;1270;105578;-80
2024/02/04 00:31:37;;;;;;;5.10;2.90;;;;;;;6.72;87.82;99644.67;129695;1270;106752;-81
2024/02/04 00:34:42;;;;;;;9.10;3.70;;;;;;;6.72;87.97;99643.25;129702;1264;110141;-81
2024/02/04 00:37:48;;;;;;;6.30;3.10;;;;;;;6.73;88.19;99646.21;129691;1270;108685;-82
2024/02/04 00:40:54;;;;;;;9.10;3.50;;;;;;;6.68;88.31;99645.86;129653;1269;108718;-82
2024/02/04 00:44:00;;;;;;;7.50;3.10;;;;;;;6.65;88.46;99645.29;129564;1270;107734;-83
2024/02/04 00:47:06;;;;;;;10.40;4.80;;;;;;;6.59;88.07;99645.33;129667;1265;108855;-80
2024/02/04 00:50:12;;;;;;;6.90;3.00;;;;;;;6.54;88.31;99647.72;129642;1270;107420;-81
2024/02/04 00:53:18;;;;;;;8.30;3.30;;;;;;;6.53;88.23;99647.65;129759;1264;108647;-81
2024/02/04 00:56:23;;;;;;;6.70;3.00;;;;;;;6.56;88.06;99643.61;129678;1270;108689;-81
2024/02/04 00:59:29;;;;;;;6.40;3.10;;;;;;;6.56;88.36;99638.01;129667;1268;106639;-81
2024/02/04 01:02:34;;;;;;;6.60;2.70;;;;;;;6.54;88.16;99636.95;129696;1268;108827;-80
2024/02/04 01:05:40;;;;;;;6.90;3.10;;;;;;;6.51;88.08;99644.46;129728;1264;107028;-81
2024/02/04 01:08:46;;;;;;;6.10;2.60;;;;;;;6.47;88.07;99645.90;129710;1264;107827;-81
2024/02/04 01:11:53;;;;;;;6.80;2.50;;;;;;;6.41;87.97;99648.23;129643;1278;108895;-81
2024/02/04 01:14:58;;;;;;;4.70;1.90;;;;;;;6.37;88.11;99655.27;129669;1270;108635;-81
2024/02/04 01:18:04;;;;;;;7.90;2.70;;;;;;;6.38;87.90;99649.73;129565;1264;106880;-81
2024/02/04 01:21:10;;;;;;;6.30;2.70;;;;;;;6.40;87.91;99648.83;129690;1264;108741;-80
2024/02/04 01:24:15;;;;;;;6.20;2.60;;;;;;;6.42;87.48;99652.91;129671;1264;106129;-81
2024/02/04 01:27:21;;;;;;;6.10;2.20;;;;;;;6.40;87.51;99647.99;129728;1263;108779;-81
2024/02/04 01:30:28;;;;;;;8.60;2.60;;;;;;;6.33;87.59;99645.60;129644;1270;108773;-82
2024/02/04 01:33:34;;;;;;;5.80;1.90;;;;;;;6.31;87.60;99648.62;129664;1269;109172;-82
2024/02/04 01:36:39;;;;;;;7.00;2.40;;;;;;;6.31;87.42;99643.90;129670;1264;108512;-81
2024/02/04 01:39:45;;;;;;;7.40;2.40;;;;;;;6.32;87.23;99640.45;129658;1264;108544;-80
2024/02/04 01:42:50;;;;;;;5.80;2.20;;;;;;;6.33;87.53;99638.19;129701;1269;107565;-81
2024/02/04 01:45:57;;;;;;;6.50;2.00;;;;;;;6.30;87.16;99636.50;129678;1268;108706;-82
2024/02/04 01:49:03;;;;;;;5.20;2.30;;;;;;;6.26;87.37;99634.54;129708;1270;107036;-82
2024/02/04 01:52:11;;;;;;;6.10;2.30;;;;;;;6.22;87.59;99635.27;129713;1270;108785;-81
2024/02/04 01:55:18;;;;;;;6.60;2.10;;;;;;;6.18;87.51;99634.98;129705;1270;108694;-81
2024/02/04 01:58:25;;;;;;;8.50;2.50;;;;;;;6.18;87.66;99644.33;129696;1264;106510;-82
2024/02/04 02:01:30;;;;;;;6.70;2.40;;;;;;;6.20;87.73;99641.52;129672;1264;106897;-82
2024/02/04 02:04:36;;;;;;;7.10;3.60;;;;;;;6.22;87.68;99638.09;129668;1270;108609;-82
2024/02/04 02:07:44;;;;;;;9.50;5.60;;;;;;;6.24;87.88;99644.86;129666;1268;107978;-82
2024/02/04 02:10:58;;;;;;;7.90;3.20;;;;;;;6.23;88.07;99641.34;129731;1269;106699;-81
2024/02/04 02:14:07;;;;;;;6.60;2.50;;;;;;;6.23;87.79;99640.70;129715;1269;106510;-81
2024/02/04 02:17:18;;;;;;;7.90;3.00;;;;;;;6.25;87.76;99629.58;129626;1268;106648;-82
2024/02/04 02:20:28;;;;;;;5.30;2.60;;;;;;;6.31;87.90;99626.91;129686;1264;108695;-82
2024/02/04 02:23:41;;;;;;;6.30;2.50;;;;;;;6.40;87.78;99627.33;129682;1270;108739;-82
2024/02/04 02:26:47;;;;;;;7.10;2.70;;;;;;;6.44;87.37;99622.89;129722;1269;108508;-82
2024/02/04 02:29:52;;;;;;;6.40;2.80;;;;;;;6.42;87.16;99618.59;129654;1268;108707;-81
2024/02/04 02:33:00;;;;;;;5.90;2.70;;;;;;;6.42;87.21;99621.83;129699;1263;108843;-81
2024/02/04 02:36:14;;;;;;;6.50;2.40;;;;;;;6.37;86.74;99616.48;129687;1263;107761;-81
2024/02/04 02:39:22;;;;;;;6.00;2.10;;;;;;;6.32;86.89;99621.68;129667;1270;107094;-81
2024/02/04 02:42:29;;;;;;;9.20;2.20;;;;;;;6.35;86.92;99626.73;129740;1268;107601;-81
2024/02/04 02:45:38;;;;;;;6.10;2.30;;;;;;;6.35;86.01;99630.41;129703;1270;106854;-81
2024/02/04 02:48:44;;;;;;;3.70;1.90;;;;;;;6.36;86.06;99634.57;129689;1264;108691;-80
2024/02/04 02:51:49;;;;;;;5.70;1.90;;;;;;;6.34;85.79;99635.60;129654;1270;107388;-81
2024/02/04 02:54:55;;;;;;;4.00;1.80;;;;;;;6.32;85.88;99636.52;129681;1270;108853;-80
2024/02/04 02:58:00;;;;;;;5.20;2.20;;;;;;;6.29;85.43;99629.69;129749;1264;108782;-81
2024/02/04 03:01:06;;;;;;;4.50;2.80;;;;;;;6.27;85.78;99623.84;129696;1264;107171;-82
2024/02/04 03:04:12;;;;;;;4.90;2.00;;;;;;;6.26;85.20;99632.30;129630;1269;108654;-80
2024/02/04 03:07:17;;;;;;;4.30;1.70;;;;;;;6.25;84.77;99639.42;129673;1264;108449;-81
2024/02/04 03:10:23;;;;;;;5.70;2.50;;;;;;;6.29;84.78;99643.85;129639;1265;107665;-82
2024/02/04 03:13:31;;;;;;;7.10;2.20;;;;;;;6.27;84.51;99646.83;129726;1264;107747;-82
2024/02/04 03:16:36;;;;;;;5.40;2.10;;;;;;;6.25;84.34;99657.60;129679;1270;107651;-82
2024/02/04 03:19:44;;;;;;;4.60;1.50;;;;;;;6.20;84.47;99656.79;129643;1264;107142;-82
2024/02/04 03:22:50;;;;;;;5.00;1.50;;;;;;;6.19;85.24;99651.33;129696;1263;109279;-82
2024/02/04 03:25:56;;;;;;;5.10;2.00;;;;;;;6.23;85.14;99644.69;129707;1270;107638;-81
2024/02/04 03:29:04;;;;;;;6.30;1.70;;;;;;;6.27;84.76;99656.72;129613;1269;108865;-80
2024/02/04 03:32:11;;;;;;;6.40;2.00;;;;;;;6.27;84.64;99678.11;129738;1265;108709;-82
2024/02/04 03:35:17;;;;;;;6.70;1.80;;;;;;;6.23;84.77;99683.20;129681;1270;108688;-82
2024/02/04 03:38:23;;;;;;;4.60;1.80;;;;;;;6.22;84.95;99667.48;129656;1268;107849;-82
2024/02/04 03:41:30;;;;;;;5.10;1.80;;;;;;;6.18;84.89;99660.03;129744;1270;108811;-82
2024/02/04 03:44:37;;;;;;;8.00;1.50;;;;;;;6.15;85.14;99651.44;129713;1264;105596;-82
2024/02/04 03:47:43;;;;;;;5.90;1.90;;;;;;;6.14;85.18;99652.52;129582;1269;138984;-82
2024/02/04 03:50:49;;;;;;;6.20;1.80;;;;;;;6.12;84.75;99655.83;129661;1264;107511;-82
2024/02/04 03:53:55;;;;;;;7.30;1.90;;;;;;;6.15;85.07;99651.52;129712;1269;106812;-82
2024/02/04 03:57:00;;;;;;;8.10;1.70;;;;;;;6.16;84.76;99650.20;129734;1270;106692;-82
2024/02/04 04:00:08;;;;;;;5.10;1.60;;;;;;;6.15;84.52;99646.52;129637;1270;106851;-82
2024/02/04 04:03:17;;;;;;;5.80;1.90;;;;;;;6.14;84.58;99648.46;129712;1264;108835;-83
2024/02/04 04:06:23;;;;;;;4.80;1.20;;;;;;;6.11;84.38;99656.79;129699;1264;107902;-83
2024/02/04 04:09:28;;;;;;;10.30;1.80;;;;;;;6.09;84.10;99658.58;129699;1264;108608;-81
2024/02/04 04:12:34;;;;;;;6.50;1.70;;;;;;;6.08;84.13;99660.25;129692;1263;108392;-83
2024/02/04 04:15:41;;;;;;;6.50;1.50;;;;;;;6.10;83.50;99671.20;129693;1270;107474;-82
2024/02/04 04:18:46;;;;;;;7.30;1.80;;;;;;;6.10;83.46;99679.84;129695;1269;108654;-82
2024/02/04 04:21:52;;;;;;;4.00;1.30;;;;;;;6.06;83.18;99685.85;129708;1270;107895;-82
2024/02/04 04:24:57;;;;;;;4.40;1.40;;;;;;;5.97;82.36;99685.39;129702;1264;108737;-80
2024/02/04 04:28:04;;;;;;;6.60;1.70;;;;;;;5.83;82.31;99692.94;129714;1269;108891;-82
2024/02/04 04:31:09;;;;;;;7.40;1.80;;;;;;;5.76;82.73;99691.87;129692;1270;106348;-82
2024/02/04 04:34:18;;;;;;;7.90;1.20;;;;;;;5.70;82.67;99687.43;129698;1268;108837;-82
2024/02/04 04:37:23;;;;;;;7.20;1.50;;;;;;;5.65;82.73;99685.58;129724;1270;107646;-81
2024/02/04 04:40:29;;;;;;;8.00;1.80;;;;;;;5.60;82.39;99686.02;129701;1269;108748;-82
2024/02/04 04:43:37;;;;;;;6.00;1.60;;;;;;;5.57;82.73;99686.61;129756;1264;108583;-81
2024/02/04 04:46:43;;;;;;;7.80;1.30;;;;;;;5.55;82.81;99689.31;129698;1264;108684;-82
2024/02/04 04:49:48;;;;;;;4.80;1.40;;;;;;;5.51;82.69;99687.88;129690;1264;108849;-82
2024/02/04 04:52:54;;;;;;;7.30;1.60;;;;;;;5.41;82.53;99688.91;129704;1270;107831;-81
2024/02/04 04:56:00;;;;;;;5.40;1.50;;;;;;;5.36;82.75;99688.84;129714;1264;108765;-82
2024/02/04 04:59:06;;;;;;;6.00;1.40;;;;;;;5.28;82.71;99688.13;129741;1269;108447;-82
2024/02/04 05:02:11;;;;;;;5.30;1.50;;;;;;;5.25;83.14;99682.71;129680;1268;108761;-82
2024/02/04 05:05:17;;;;;;;5.50;1.60;;;;;;;5.24;82.82;99692.14;129695;1270;107209;-81
2024/02/04 05:08:22;;;;;;;8.30;3.40;;;;;;;5.24;82.72;99698.14;129691;1269;108778;-81
2024/02/04 05:11:28;;;;;;;7.20;1.70;;;;;;;5.22;82.90;99700.46;129660;1269;107657;-82
2024/02/04 05:14:33;;;;;;;10.10;2.90;;;;;;;5.19;83.03;99707.94;129709;1269;107770;-80
2024/02/04 05:17:39;;;;;;;7.30;1.60;;;;;;;5.14;82.84;99711.34;129680;1270;105494;-81
2024/02/04 05:20:45;;;;;;;6.10;1.50;;;;;;;5.11;82.91;99705.42;129693;1269;106743;-81
2024/02/04 05:23:51;;;;;;;6.40;1.40;;;;;;;5.09;82.90;99707.17;129681;1264;108722;-82
2024/02/04 05:26:56;;;;;;;6.60;1.60;;;;;;;5.03;82.96;99708.95;129681;1270;107750;-81
2024/02/04 05:30:02;;;;;;;16.00;6.30;;;;;;;5.02;83.19;99708.87;129628;1270;107095;-81
2024/02/04 05:33:08;;;;;;;6.00;1.90;;;;;;;5.02;83.02;99706.73;129695;1264;106256;-81
2024/02/04 05:36:14;;;;;;;8.00;3.50;;;;;;;5.04;83.11;99703.16;129693;1270;108300;-81
2024/02/04 05:39:19;;;;;;;6.60;1.60;;;;;;;5.09;82.92;99709.45;129693;1265;107547;-82
2024/02/04 05:42:25;;;;;;;15.20;7.30;;;;;;;5.12;82.79;99714.64;129733;1270;108782;-80
2024/02/04 05:45:30;;;;;;;10.00;2.80;;;;;;;5.11;82.79;99718.11;129676;1264;107223;-80
2024/02/04 05:48:36;;;;;;;8.00;1.80;;;;;;;5.13;82.84;99717.23;129697;1270;108429;-82
2024/02/04 05:51:42;;;;;;;6.30;2.30;;;;;;;5.14;82.67;99713.64;129650;1270;106564;-81
2024/02/04 05:54:48;;;;;;;7.30;3.10;;;;;;;5.13;82.63;99704.92;129666;1264;108863;-81
2024/02/04 05:57:54;;;;;;;30.00;6.40;;;;;;;5.13;82.51;99713.00;129708;1264;106919;-82
2024/02/04 06:00:59;;;;;;;15.40;4.90;;;;;;;5.14;82.42;99709.92;129667;1270;106338;-82
2024/02/04 06:04:05;;;;;;;118.30;47.90;;;;;;;5.14;82.30;99715.95;129704;1264;107479;-81
2024/02/04 06:07:11;;;;;;;51.40;20.40;;;;;;;5.12;82.50;99715.95;129677;1268;108770;-82
2024/02/04 06:10:18;;;;;;;283.50;115.50;;;;;;;5.06;82.35;99714.08;129723;1268;106903;-82
2024/02/04 06:13:24;;;;;;;86.70;32.30;;;;;;;5.01;82.48;99717.04;129691;1268;108628;-82
2024/02/04 06:16:29;;;;;;;13.50;4.10;;;;;;;4.99;82.56;99718.41;129723;1269;108654;-82
2024/02/04 06:19:35;;;;;;;15.40;5.10;;;;;;;4.97;82.53;99729.50;129668;1270;106714;-80
2024/02/04 06:22:40;;;;;;;11.40;5.30;;;;;;;5.00;82.87;99722.39;129694;1268;107561;-80
2024/02/04 06:25:46;;;;;;;131.00;53.90;;;;;;;5.04;82.55;99727.55;129696;1270;106792;-81
2024/02/04 06:28:51;;;;;;;245.40;95.70;;;;;;;5.05;82.76;99722.36;129696;1269;108723;-81
2024/02/04 06:31:57;;;;;;;263.40;103.60;;;;;;;5.05;82.74;99723.57;129653;1264;106559;-81
2024/02/04 06:35:03;;;;;;;191.00;78.80;;;;;;;5.04;82.70;99712.21;129665;1264;108464;-83
2024/02/04 06:38:09;;;;;;;127.70;45.90;;;;;;;5.01;82.81;99708.04;129639;1264;107059;-82
2024/02/04 06:41:14;;;;;;;237.20;91.30;;;;;;;4.97;82.96;99712.11;129692;1270;106552;-80
2024/02/04 06:44:20;;;;;;;173.30;67.60;;;;;;;4.95;82.83;99711.41;129744;1270;107701;-82
2024/02/04 06:47:25;;;;;;;84.90;35.70;;;;;;;4.96;83.12;99712.52;129654;1270;107139;-81
2024/02/04 06:50:31;;;;;;;149.10;66.10;;;;;;;5.00;83.15;99717.09;129718;1270;108766;-82
2024/02/04 06:53:36;;;;;;;17.70;5.90;;;;;;;5.06;83.20;99718.17;129695;1264;108695;-81
2024/02/04 06:56:42;;;;;;;36.70;17.10;;;;;;;5.10;82.88;99728.05;129678;1270;107775;-81
2024/02/04 06:59:48;;;;;;;43.10;20.40;;;;;;;5.11;82.83;99728.37;129736;1270;108659;-81
2024/02/04 07:02:53;;;;;;;36.10;18.50;;;;;;;5.13;82.70;99727.66;129679;1270;107536;-82
2024/02/04 07:06:00;;;;;;;29.70;12.90;;;;;;;5.16;82.84;99726.89;129654;1264;107646;-81
2024/02/04 07:09:05;;;;;;;51.40;23.90;;;;;;;5.18;82.63;99722.61;129688;1270;106959;-82
2024/02/04 07:12:11;;;;;;;18.00;8.30;;;;;;;5.19;82.77;99723.41;129666;1270;107664;-81
2024/02/04 07:15:17;;;;;;;94.50;46.00;;;;;;;5.24;82.76;99720.71;129704;1265;106084;-82
2024/02/04 07:18:22;;;;;;;370.40;119.70;;;;;;;5.31;82.32;99714.84;129673;1270;107779;-82
2024/02/04 07:21:31;;;;;;;344.30;108.50;;;;;;;5.35;82.22;99704.59;129718;1270;107574;-79
2024/02/04 07:24:36;;;;;;;75.70;23.90;;;;;;;5.38;81.84;99692.87;129622;1270;107989;-82
2024/02/04 07:27:42;;;;;;;269.40;76.10;;;;;;;5.38;82.01;99692.31;129909;1270;106587;-82
2024/02/04 07:30:47;;;;;;;137.40;36.10;;;;;;;5.42;82.02;99695.12;129976;1267;106246;-82
2024/02/04 07:33:53;;;;;;;479.00;162.30;;;;;;;5.44;81.69;99697.45;129793;1265;108686;-81
2024/02/04 07:36:59;;;;;;;210.80;59.80;;;;;;;5.46;81.37;99704.34;129661;1269;108737;-81
2024/02/04 07:40:06;;;;;;;45.90;13.00;;;;;;;5.51;81.49;99703.70;129682;1264;107811;-82
2024/02/04 07:43:11;;;;;;;294.60;99.30;;;;;;;5.57;81.23;99702.65;129709;1270;108517;-82
2024/02/04 07:46:17;;;;;;;83.40;28.30;;;;;;;5.68;81.04;99704.00;129822;1265;108768;-81
2024/02/04 07:49:23;;;;;;;416.00;169.20;;;;;;;5.74;80.00;99704.52;129673;1269;108197;-81
2024/02/04 07:52:28;;;;;;;248.50;104.20;;;;;;;5.87;80.37;99701.48;129644;1269;107078;-81
2024/02/04 07:55:34;;;;;;;95.70;40.20;;;;;;;6.03;79.65;99701.34;129616;1268;108469;-81
2024/02/04 07:58:39;;;;;;;71.00;35.80;;;;;;;6.14;79.08;99695.73;129646;1269;107039;-81
2024/02/04 08:01:45;;;;;;;64.80;30.80;;;;;;;6.23;78.74;99695.39;129642;1267;108736;-81
2024/02/04 08:04:50;;;;;;;46.50;24.90;;;;;;;6.28;78.69;99692.83;129657;1268;106897;-80
2024/02/04 08:07:56;;;;;;;28.20;14.90;;;;;;;6.32;78.50;99699.26;129675;1264;107654;-80
2024/02/04 08:11:02;;;;;;;34.70;20.50;;;;;;;6.31;77.52;99700.91;129714;1264;106478;-80
2024/02/04 08:14:07;;;;;;;13.10;5.40;;;;;;;6.33;78.09;99701.84;129739;1270;106320;-81
2024/02/04 08:17:13;;;;;;;11.60;3.70;;;;;;;6.31;76.98;99702.11;129643;1268;107502;-81
2024/02/04 08:20:21;;;;;;;7.50;4.20;;;;;;;6.18;76.27;99701.35;129653;1264;108022;-81
2024/02/04 08:23:26;;;;;;;16.10;9.90;;;;;;;6.08;76.01;99713.95;129681;1269;108661;-81
2024/02/04 08:26:32;;;;;;;10.30;5.60;;;;;;;6.02;76.15;99711.08;129668;1264;107851;-81
2024/02/04 08:29:38;;;;;;;58.80;37.10;;;;;;;6.03;76.94;99694.06;129730;1270;108777;-82
2024/02/04 08:32:43;;;;;;;10.30;3.80;;;;;;;6.09;77.43;99689.77;130034;1264;107803;-83
2024/02/04 08:35:49;;;;;;;8.30;3.20;;;;;;;6.15;77.34;99689.42;129989;1270;107698;-83
2024/02/04 08:38:54;;;;;;;14.60;4.00;;;;;;;6.20;76.90;99687.19;130072;1268;108797;-82
2024/02/04 08:42:00;;;;;;;8.20;2.40;;;;;;;6.27;77.62;99688.89;129963;1270;107892;-82
2024/02/04 08:45:07;;;;;;;7.20;3.00;;;;;;;6.29;76.04;99687.31;129721;1270;108715;-92
2024/02/04 08:48:13;;;;;;;13.40;4.50;;;;;;;6.28;76.92;99687.75;130108;1280;107762;-89
2024/02/04 08:51:19;;;;;;;18.90;6.60;;;;;;;6.31;77.29;99693.49;129940;1264;107391;-89
2024/02/04 08:54:24;;;;;;;11.30;3.70;;;;;;;6.35;77.12;99685.85;130032;1268;107105;-86
2024/02/04 08:57:30;;;;;;;8.30;2.60;;;;;;;6.40;76.42;99694.11;129685;1264;107735;-83
2024/02/04 09:00:35;;;;;;;9.30;3.60;;;;;;;6.38;77.02;99701.33;129882;1265;107803;-87
2024/02/04 09:03:41;;;;;;;10.80;2.40;;;;;;;6.42;77.00;99699.53;129736;1268;106657;-87
2024/02/04 09:06:47;;;;;;;19.50;7.70;;;;;;;6.41;76.36;99706.33;129740;1270;107509;-84
2024/02/04 09:09:54;;;;;;;179.20;71.20;;;;;;;6.38;76.17;99705.95;129713;1269;107835;-92
2024/02/04 09:13:00;;;;;;;176.60;60.20;;;;;;;6.37;76.47;99708.86;129781;1270;106289;-92
2024/02/04 09:16:06;;;;;;;83.50;29.60;;;;;;;6.38;75.68;99707.20;129751;1265;106594;-86
2024/02/04 09:19:12;;;;;;;52.10;18.50;;;;;;;6.34;76.46;99713.19;129771;1269;108739;-87
2024/02/04 09:22:18;;;;;;;68.90;20.90;;;;;;;6.32;75.25;99719.38;129776;1268;106540;-84
2024/02/04 09:25:25;;;;;;;184.50;61.90;;;;;;;6.34;76.10;99713.95;129781;1264;108733;-85
2024/02/04 09:28:30;;;;;;;289.60;91.70;;;;;;;6.41;76.22;99716.12;129903;1264;107564;-87
2024/02/04 09:31:36;;;;;;;196.20;52.30;;;;;;;6.51;76.32;99723.84;129942;1264;108709;-86
2024/02/04 09:34:42;;;;;;;506.60;165.00;;;;;;;6.57;75.83;99729.67;129830;1265;108728;-87
2024/02/04 09:37:47;;;;;;;259.00;67.60;;;;;;;6.61;76.11;99724.68;129797;1270;107962;-88
2024/02/04 09:40:53;;;;;;;254.50;68.80;;;;;;;6.68;76.41;99713.93;129851;1270;106997;-86
2024/02/04 09:44:00;;;;;;;268.80;77.70;;;;;;;6.72;75.50;99710.91;129941;1270;109049;-88
2024/02/04 09:47:08;;;;;;;45.00;11.50;;;;;;;6.72;75.59;99714.86;129894;1264;106489;-87
2024/02/04 09:50:14;;;;;;;231.30;81.10;;;;;;;6.64;75.76;99695.93;129766;1270;107559;-86
2024/02/04 09:53:32;;;;;;;207.40;87.10;;;;;;;6.68;76.29;99687.60;129706;1270;108714;-85
2024/02/04 09:56:38;;;;;;;160.20;75.90;;;;;;;6.73;75.93;99689.08;129717;1270;108713;-86
2024/02/04 09:59:47;;;;;;;166.40;68.90;;;;;;;6.80;76.40;99673.80;129943;1270;107733;-91
2024/02/04 10:02:54;;;;;;;67.10;33.00;;;;;;;6.95;76.09;99670.84;130034;1264;106704;-88
2024/02/04 10:06:00;;;;;;;30.90;17.10;;;;;;;7.03;76.14;99661.34;129912;1269;107753;-86
2024/02/04 10:09:06;;;;;;;18.60;9.00;;;;;;;7.14;75.86;99658.06;129819;1269;108787;-86
2024/02/04 10:12:12;;;;;;;16.00;7.70;;;;;;;7.15;75.16;99651.03;129872;1281;108631;-86
2024/02/04 10:15:17;;;;;;;14.70;5.50;;;;;;;7.19;76.09;99638.29;129970;1267;107920;-85
2024/02/04 10:18:24;;;;;;;12.40;3.40;;;;;;;7.28;76.17;99634.23;129769;1266;107662;-87
2024/02/04 10:21:30;;;;;;;11.10;4.00;;;;;;;7.34;75.73;99634.39;129688;1269;108014;-86
2024/02/04 10:24:36;;;;;;;11.00;3.60;;;;;;;7.33;75.81;99634.81;129735;1267;108694;-85
2024/02/04 10:27:42;;;;;;;7.60;3.00;;;;;;;7.27;75.56;99639.32;129824;1267;108518;-86
2024/02/04 10:30:47;;;;;;;21.70;10.20;;;;;;;7.20;76.82;99643.33;130000;1269;107630;-88
2024/02/04 10:33:53;;;;;;;10.70;3.50;;;;;;;7.13;76.97;99631.48;129959;1264;107387;-88
2024/02/04 10:36:59;;;;;;;8.20;2.60;;;;;;;7.04;77.24;99627.50;129905;1269;106525;-87
2024/02/04 10:40:07;;;;;;;8.70;2.60;;;;;;;6.92;77.56;99610.62;129806;1270;107777;-89
2024/02/04 10:43:13;;;;;;;6.10;2.60;;;;;;;6.84;77.62;99609.62;130059;1268;106911;-88
2024/02/04 10:46:21;;;;;;;9.30;3.00;;;;;;;6.83;77.80;99606.19;130147;1267;108806;-89
2024/02/04 10:49:28;;;;;;;10.70;4.20;;;;;;;6.88;78.11;99600.75;129996;1267;108794;-87
2024/02/04 10:52:39;;;;;;;20.10;7.30;;;;;;;6.96;78.22;99588.45;130022;1270;108715;-82
2024/02/04 10:55:47;;;;;;;16.70;6.00;;;;;;;6.99;78.36;99586.08;129854;1267;108592;-86
2024/02/04 10:58:55;;;;;;;15.40;5.50;;;;;;;7.02;78.26;99578.16;130003;1264;106600;-87
2024/02/04 11:02:02;;;;;;;14.40;4.80;;;;;;;7.02;78.45;99575.35;130101;1264;106987;-87
2024/02/04 11:05:09;;;;;;;16.50;5.80;;;;;;;6.94;78.57;99564.77;129900;1264;108576;-90
2024/02/04 11:08:15;;;;;;;12.90;4.60;;;;;;;6.91;78.55;99571.33;129770;1269;108793;-85
2024/02/04 11:11:23;;;;;;;16.40;6.70;;;;;;;6.88;78.63;99567.84;129774;1270;108742;-86
2024/02/04 11:14:30;;;;;;;12.50;5.10;;;;;;;6.81;79.09;99564.29;129908;1267;108710;-85
2024/02/04 11:17:52;;;;;;;43.30;24.30;;;;;;;6.80;79.24;99557.66;129974;1277;107687;-86
2024/02/04 11:21:24;;;;;;;56.10;32.30;;;;;;;6.85;79.52;99556.27;129905;1265;108299;-83
2024/02/04 11:24:45;;;;;;;40.20;19.80;;;;;;;6.91;79.32;99548.46;129876;1267;107432;-88
2024/02/04 11:27:51;;;;;;;84.60;41.30;;;;;;;6.96;79.68;99546.92;130137;1267;105894;-85
2024/02/04 11:30:57;;;;;;;171.10;87.80;;;;;;;6.98;79.43;99540.69;129874;1269;108703;-86
2024/02/04 11:34:02;;;;;;;135.00;67.70;;;;;;;7.02;79.46;99534.63;129819;1270;106666;-85
2024/02/04 11:37:19;;;;;;;88.30;44.90;;;;;;;7.08;79.81;99534.66;129851;1270;109983;-84
2024/02/04 11:40:31;;;;;;;47.60;25.60;;;;;;;7.13;79.54;99529.21;129753;1270;108927;-85
2024/02/04 11:43:37;;;;;;;77.60;46.80;;;;;;;7.17;79.27;99526.03;129815;1270;108741;-86
2024/02/04 11:46:48;;;;;;;99.70;47.10;;;;;;;7.17;79.12;99518.25;129685;1269;108789;-87
2024/02/04 11:49:58;;;;;;;76.20;35.90;;;;;;;7.19;79.25;99516.96;129707;1270;108716;-87
2024/02/04 11:53:10;;;;;;;31.50;17.50;;;;;;;7.27;78.93;99510.46;129702;1270;108315;-84
2024/02/04 11:56:16;;;;;;;53.90;28.20;;;;;;;7.34;78.48;99508.80;129772;1269;107984;-85
2024/02/04 11:59:23;;;;;;;44.30;22.80;;;;;;;7.33;78.15;99507.03;129818;1269;108644;-86
2024/02/04 12:02:29;;;;;;;45.00;23.60;;;;;;;7.40;78.37;99506.43;129976;1270;106352;-87
2024/02/04 12:05:39;;;;;;;35.00;20.40;;;;;;;7.41;78.57;99490.17;129785;1270;109006;-86
2024/02/04 12:08:45;;;;;;;40.80;23.50;;;;;;;7.44;78.46;99475.33;129760;1270;108656;-85
2024/02/04 12:11:52;;;;;;;33.20;19.60;;;;;;;7.44;78.50;99474.27;129735;1264;108923;-86
2024/02/04 12:14:58;;;;;;;19.10;9.60;;;;;;;7.47;78.48;99470.08;129692;1269;108669;-86
2024/02/04 12:18:10;;;;;;;12.70;6.30;;;;;;;7.44;77.95;99463.31;129867;1269;108843;-88
2024/02/04 12:21:16;;;;;;;13.20;5.70;;;;;;;7.44;78.41;99453.56;129808;1269;109049;-86
2024/02/04 12:24:22;;;;;;;10.80;5.00;;;;;;;7.44;77.67;99445.32;129698;1265;107019;-86
2024/02/04 12:27:28;;;;;;;17.30;8.80;;;;;;;7.43;78.12;99441.28;129707;1278;108400;-86
2024/02/04 12:30:36;;;;;;;45.70;18.30;;;;;;;7.51;78.33;99429.80;129737;1282;106385;-82
2024/02/04 12:33:42;;;;;;;29.80;16.50;;;;;;;7.55;78.21;99428.00;129656;1264;107720;-85
2024/02/04 12:36:58;;;;;;;18.00;9.70;;;;;;;7.59;77.87;99432.81;129668;1264;108001;-86
2024/02/04 12:40:03;;;;;;;9.30;4.30;;;;;;;7.61;77.71;99430.48;129649;1267;108789;-86
2024/02/04 12:43:32;;;;;;;10.60;5.10;;;;;;;7.60;77.27;99423.53;129595;1268;108613;-86
2024/02/04 12:46:39;;;;;;;15.00;5.70;;;;;;;7.57;77.13;99424.59;129667;1270;108459;-86
2024/02/04 12:49:45;;;;;;;10.90;4.80;;;;;;;7.51;77.28;99418.95;129622;1277;107783;-86
2024/02/04 12:53:02;;;;;;;15.00;5.70;;;;;;;7.47;77.22;99423.58;129639;1268;108783;-85
2024/02/04 12:56:08;;;;;;;9.70;3.70;;;;;;;7.40;77.19;99419.68;129673;1270;106347;-86
2024/02/04 12:59:24;;;;;;;6.80;3.00;;;;;;;7.34;77.17;99419.47;129663;1269;107329;-86
2024/02/04 13:02:30;;;;;;;9.40;3.70;;;;;;;7.29;77.05;99422.73;129733;1269;108727;-86
2024/02/04 13:05:35;;;;;;;16.90;7.10;;;;;;;7.23;77.03;99422.63;129776;1269;109128;-86
2024/02/04 13:08:42;;;;;;;77.30;37.30;;;;;;;7.16;76.49;99416.29;130009;1268;106330;-86
2024/02/04 13:11:48;;;;;;;152.70;69.10;;;;;;;7.12;76.81;99418.75;130009;1270;108417;-86
2024/02/04 13:14:54;;;;;;;52.30;25.70;;;;;;;7.12;76.36;99422.85;130049;1270;106606;-85
2024/02/04 13:18:00;;;;;;;122.20;55.50;;;;;;;7.12;76.52;99420.17;130222;1264;106681;-85
2024/02/04 13:21:06;;;;;;;172.60;79.00;;;;;;;7.13;75.78;99410.33;130173;1278;109258;-85
2024/02/04 13:24:12;;;;;;;178.20;77.00;;;;;;;7.16;76.11;99409.91;130058;1268;108550;-85
2024/02/04 13:27:17;;;;;;;160.70;63.50;;;;;;;7.20;76.24;99403.63;130132;1270;108822;-85
2024/02/04 13:30:23;;;;;;;66.30;27.10;;;;;;;7.22;75.39;99398.80;129947;1270;108746;-85
2024/02/04 13:33:28;;;;;;;229.70;109.20;;;;;;;7.18;75.08;99394.83;129959;1268;107944;-86
2024/02/04 13:36:34;;;;;;;100.70;48.30;;;;;;;7.15;75.13;99386.10;129487;1270;108754;-85
2024/02/04 13:39:39;;;;;;;34.60;17.00;;;;;;;7.12;74.48;99376.85;129679;1268;108678;-86
2024/02/04 13:42:46;;;;;;;69.80;34.70;;;;;;;7.05;73.95;99383.23;129966;1270;108768;-85
2024/02/04 13:45:52;;;;;;;35.90;15.70;;;;;;;7.01;74.18;99384.31;130151;1269;108667;-85
2024/02/04 13:48:57;;;;;;;127.00;62.00;;;;;;;6.96;74.22;99384.96;130092;1270;107584;-85
2024/02/04 13:52:03;;;;;;;66.80;31.70;;;;;;;6.96;74.41;99384.66;129845;1264;108483;-85
2024/02/04 13:55:10;;;;;;;32.70;16.00;;;;;;;6.95;74.44;99382.08;129918;1270;109890;-85
2024/02/04 13:58:18;;;;;;;77.20;35.40;;;;;;;6.95;74.44;99378.70;130201;1264;108754;-85
2024/02/04 14:01:23;;;;;;;33.50;16.00;;;;;;;6.96;74.21;99361.26;130143;1269;108702;-85
2024/02/04 14:04:31;;;;;;;25.10;14.60;;;;;;;6.96;74.59;99360.52;130186;1269;108432;-85
2024/02/04 14:07:38;;;;;;;9.40;5.10;;;;;;;6.97;74.16;99364.71;130056;1278;108766;-85
2024/02/04 14:10:43;;;;;;;15.70;7.40;;;;;;;6.96;74.44;99352.55;130027;1271;108595;-85
2024/02/04 14:13:49;;;;;;;18.90;6.40;;;;;;;7.00;74.12;99347.31;130052;1269;108014;-85
2024/02/04 14:16:55;;;;;;;11.50;5.10;;;;;;;7.04;74.33;99347.39;130072;1271;108798;-85